Time;durP1;ratioP1;P1;durP2;ratioP2;P2;SDS_P1;SDS_P2;PMS_P1;PMS_P2;Temp;Humidity;BMP_temperature;BMP_pressure;BME280_temperature;BME280_humidity;BME280_pressure;Samples;Min_cycle;Max_cycle;Signal;HPM_P1;HPM_P2
2023/03/27 00:00:23;;;;;;;12.00;1.67;;;4.20;99.90;;;;;;5030675;28;20026;-73
2023/03/27 00:02:50;;;;;;;8.87;2.13;;;4.20;99.90;;;;;;5030151;28;20108;-73
2023/03/27 00:05:19;;;;;;;5.27;1.23;;;4.20;99.90;;;;;;5030579;28;20108;-73
2023/03/27 00:07:47;;;;;;;7.90;1.10;;;4.10;99.90;;;;;;5017478;28;20028;-73
2023/03/27 00:10:13;;;;;;;9.43;1.27;;;4.10;99.90;;;;;;5030594;28;20024;-73
2023/03/27 00:12:39;;;;;;;4.53;1.00;;;4.00;99.90;;;;;;5030440;28;20091;-72
2023/03/27 00:15:06;;;;;;;9.20;1.47;;;4.00;99.90;;;;;;5030293;28;20013;-73
2023/03/27 00:17:32;;;;;;;9.67;1.37;;;4.00;99.90;;;;;;5030240;28;20025;-72
2023/03/27 00:19:58;;;;;;;8.27;1.00;;;3.90;99.90;;;;;;5029984;28;20029;-72
2023/03/27 00:22:23;;;;;;;7.07;0.83;;;3.90;99.90;;;;;;5028625;28;20061;-73
2023/03/27 00:24:49;;;;;;;11.53;1.43;;;3.90;99.90;;;;;;5029489;28;20025;-73
2023/03/27 00:27:15;;;;;;;13.97;2.13;;;3.90;99.90;;;;;;5030109;28;20025;-73
2023/03/27 00:29:41;;;;;;;8.73;1.10;;;3.80;99.90;;;;;;5030954;28;20482;-72
2023/03/27 00:32:06;;;;;;;5.13;1.20;;;3.90;99.90;;;;;;5042586;28;20025;-73
2023/03/27 00:34:32;;;;;;;10.30;1.30;;;3.80;99.90;;;;;;5042916;28;20033;-73
2023/03/27 00:36:57;;;;;;;8.33;1.77;;;3.80;99.90;;;;;;5036045;28;20040;-72
2023/03/27 00:39:23;;;;;;;10.97;1.23;;;3.80;99.90;;;;;;5034891;28;20026;-72
2023/03/27 00:41:49;;;;;;;8.43;1.77;;;3.80;99.90;;;;;;5047805;28;20013;-73
2023/03/27 00:44:33;;;;;;;8.70;1.23;;;3.80;99.90;;;;;;5049266;28;20017;-73
2023/03/27 00:47:01;;;;;;;6.43;1.15;;;3.90;99.90;;;;;;5049134;28;20047;-73
2023/03/27 00:49:30;;;;;;;5.43;1.30;;;3.90;99.90;;;;;;5052895;28;20024;-73
2023/03/27 00:51:58;;;;;;;9.33;1.20;;;3.90;99.90;;;;;;5052127;28;20267;-72
2023/03/27 00:54:28;;;;;;;9.07;1.13;;;3.80;99.90;;;;;;5051068;28;20013;-73
2023/03/27 00:56:58;;;;;;;8.40;1.27;;;3.80;99.90;;;;;;5052558;28;20025;-72
2023/03/27 00:59:30;;;;;;;12.03;1.80;;;3.80;99.90;;;;;;5053568;28;20063;-73
2023/03/27 01:01:57;;;;;;;13.70;1.50;;;3.80;99.90;;;;;;5052437;28;20052;-73
2023/03/27 01:04:23;;;;;;;10.53;1.30;;;3.80;99.90;;;;;;5052648;28;20311;-72
2023/03/27 01:06:52;;;;;;;4.13;0.90;;;3.80;99.90;;;;;;5052196;28;20389;-73
2023/03/27 01:09:18;;;;;;;6.70;1.23;;;3.80;99.90;;;;;;5052858;28;20017;-72
2023/03/27 01:12:07;;;;;;;3.53;1.10;;;3.80;99.90;;;;;;5052873;28;20462;-71
2023/03/27 01:14:56;;;;;;;9.77;1.30;;;3.70;99.90;;;;;;5033391;28;20482;-73
2023/03/27 01:17:48;;;;;;;9.53;1.63;;;3.70;99.90;;;;;;5041030;28;20108;-72
2023/03/27 01:20:39;;;;;;;15.70;2.33;;;3.70;99.90;;;;;;5048495;28;20039;-73
2023/03/27 01:23:24;;;;;;;6.43;1.47;;;3.60;99.90;;;;;;5051665;28;20024;-73
2023/03/27 01:26:08;;;;;;;;;;;3.60;99.90;;;;;;5041792;28;20025;-73
2023/03/27 01:28:48;;;;;;;5.40;1.40;;;3.50;99.90;;;;;;5044404;28;19908;-74
2023/03/27 01:31:42;;;;;;;7.10;1.33;;;3.50;99.90;;;;;;5047786;28;20036;-73
2023/03/27 01:34:29;;;;;;;9.90;1.73;;;3.50;99.90;;;;;;5055306;28;20494;-73
2023/03/27 01:37:24;;;;;;;10.53;1.87;;;3.40;99.90;;;;;;5045125;28;20430;-73
2023/03/27 01:39:58;;;;;;;9.73;1.30;;;3.40;99.90;;;;;;5036358;28;20049;-73
2023/03/27 01:42:31;;;;;;;12.77;1.70;;;3.40;99.90;;;;;;5052582;28;20048;-73
2023/03/27 01:45:03;;;;;;;8.60;1.37;;;3.40;99.90;;;;;;5051750;28;20039;-73
2023/03/27 01:47:40;;;;;;;10.67;1.90;;;3.40;99.90;;;;;;5047720;28;20053;-73
2023/03/27 01:50:18;;;;;;;25.77;2.43;;;3.50;99.90;;;;;;5051469;28;20029;-73
2023/03/27 01:52:51;;;;;;;13.33;2.20;;;3.50;99.90;;;;;;5050906;28;20462;-73
2023/03/27 01:55:22;;;;;;;13.20;2.90;;;3.60;99.90;;;;;;5050276;28;20087;-73
2023/03/27 01:57:59;;;;;;;9.20;1.50;;;3.60;99.90;;;;;;5049698;28;20040;-73
2023/03/27 02:00:26;;;;;;;11.20;2.00;;;3.70;99.90;;;;;;5038708;28;20040;-73
2023/03/27 02:03:08;;;;;;;7.03;1.63;;;3.80;99.90;;;;;;5032285;28;20158;-73
2023/03/27 02:05:57;;;;;;;12.33;1.83;;;3.80;99.90;;;;;;5033081;28;20009;-72
2023/03/27 02:08:45;;;;;;;9.33;1.90;;;3.90;99.90;;;;;;5033017;28;20140;-71
2023/03/27 02:11:11;;;;;;;4.37;1.37;;;4.00;99.90;;;;;;5032836;28;20026;-71
2023/03/27 02:13:42;;;;;;;5.83;1.17;;;4.00;99.90;;;;;;5034164;28;20021;-71
2023/03/27 02:16:11;;;;;;;5.47;1.40;;;4.10;99.90;;;;;;5033091;28;20025;-72
2023/03/27 02:18:41;;;;;;;4.07;1.20;;;4.10;99.90;;;;;;5033844;28;20044;-72
2023/03/27 02:21:06;;;;;;;8.20;1.07;;;4.20;99.90;;;;;;5032912;28;20037;-73
2023/03/27 02:23:32;;;;;;;7.50;1.10;;;4.20;99.90;;;;;;5034629;28;20084;-73
2023/03/27 02:25:59;;;;;;;6.13;1.10;;;4.20;99.90;;;;;;5032697;28;20099;-73
2023/03/27 02:28:54;;;;;;;3.53;1.13;;;4.20;99.90;;;;;;5035081;28;20076;-72
2023/03/27 02:31:45;;;;;;;3.43;0.77;;;4.20;99.90;;;;;;5047329;28;20021;-74
2023/03/27 02:34:25;;;;;;;7.20;0.70;;;4.20;99.90;;;;;;5039894;28;20026;-73
2023/03/27 02:37:28;;;;;;;3.23;0.60;;;4.10;99.90;;;;;;5037223;28;20025;-72
2023/03/27 02:40:05;;;;;;;2.33;0.60;;;4.10;99.90;;;;;;5050198;28;20066;-72
2023/03/27 02:42:42;;;;;;;3.30;0.70;;;4.00;99.90;;;;;;5051622;28;20465;-72
2023/03/27 02:45:17;;;;;;;5.30;0.77;;;4.00;99.90;;;;;;5050600;28;20139;-72
2023/03/27 02:47:53;;;;;;;2.97;0.60;;;4.00;99.90;;;;;;5038223;28;20127;-72
2023/03/27 02:50:24;;;;;;;5.50;0.60;;;4.00;99.90;;;;;;5051329;28;20500;-72
2023/03/27 02:52:53;;;;;;;2.60;0.67;;;4.00;99.90;;;;;;5049911;28;20048;-72
2023/03/27 02:55:28;;;;;;;8.37;0.60;;;3.90;99.90;;;;;;5051242;28;20104;-73
2023/03/27 02:57:58;;;;;;;2.73;0.70;;;3.90;99.90;;;;;;5050287;28;20028;-72
2023/03/27 03:00:28;;;;;;;2.53;0.70;;;3.80;99.90;;;;;;5051090;28;20076;-73
2023/03/27 03:03:09;;;;;;;3.10;0.50;;;3.90;99.90;;;;;;5024469;28;20059;-73
2023/03/27 03:05:39;;;;;;;5.47;0.90;;;3.80;99.90;;;;;;5049467;28;20048;-72
2023/03/27 03:08:08;;;;;;;7.10;0.80;;;3.70;99.90;;;;;;5049750;28;20021;-73
2023/03/27 03:10:35;;;;;;;6.57;0.83;;;3.70;99.90;;;;;;5049347;28;20013;-73
2023/03/27 03:13:01;;;;;;;4.27;0.80;;;3.70;99.90;;;;;;5048781;28;20389;-73
2023/03/27 03:15:27;;;;;;;6.23;0.93;;;3.60;99.90;;;;;;5047777;28;20021;-73
2023/03/27 03:17:53;;;;;;;4.70;1.00;;;3.50;99.90;;;;;;5039827;28;20091;-73
2023/03/27 03:20:18;;;;;;;4.07;0.70;;;3.60;99.90;;;;;;5049493;28;20036;-72
2023/03/27 03:22:44;;;;;;;3.23;0.70;;;3.50;99.90;;;;;;5049638;28;20032;-73
2023/03/27 03:25:10;;;;;;;11.77;0.77;;;3.50;99.90;;;;;;5048009;28;20025;-72
2023/03/27 03:27:36;;;;;;;6.17;0.70;;;3.50;99.90;;;;;;5048929;28;20025;-73
2023/03/27 03:30:03;;;;;;;6.60;1.03;;;3.40;99.90;;;;;;5049537;28;20037;-73
2023/03/27 03:32:29;;;;;;;5.90;0.60;;;3.40;99.90;;;;;;5049198;28;20025;-73
2023/03/27 03:34:55;;;;;;;6.17;0.97;;;3.40;99.90;;;;;;5033599;28;20026;-72
2023/03/27 03:37:27;;;;;;;5.40;0.60;;;3.40;99.90;;;;;;5029546;28;20482;-72
2023/03/27 03:39:53;;;;;;;2.80;1.10;;;3.40;99.90;;;;;;5030561;28;20018;-72
2023/03/27 03:42:19;;;;;;;8.40;0.90;;;3.40;99.90;;;;;;5030511;28;20078;-73
2023/03/27 03:44:45;;;;;;;1.60;0.67;;;3.50;99.90;;;;;;5030312;28;20112;-72
2023/03/27 03:47:10;;;;;;;5.30;0.70;;;3.50;99.90;;;;;;5029291;28;20037;-72
2023/03/27 03:49:36;;;;;;;7.73;1.27;;;3.60;99.90;;;;;;5030315;28;20021;-73
2023/03/27 03:52:02;;;;;;;2.83;0.90;;;3.60;99.90;;;;;;5040320;28;20025;-72
2023/03/27 03:54:27;;;;;;;3.37;0.80;;;3.70;99.90;;;;;;5048714;28;20410;-72
2023/03/27 03:56:53;;;;;;;4.83;0.93;;;3.70;99.90;;;;;;5048615;28;20153;-72
2023/03/27 03:59:18;;;;;;;2.90;0.50;;;3.80;99.90;;;;;;5044665;28;21129;-72
2023/03/27 04:01:44;;;;;;;3.20;0.70;;;3.80;99.90;;;;;;5029420;28;20512;-72
2023/03/27 04:04:11;;;;;;;4.03;0.80;;;3.80;99.90;;;;;;5031398;28;20014;-72
2023/03/27 04:06:36;;;;;;;2.97;0.60;;;3.90;99.90;;;;;;5031765;28;20063;-72
2023/03/27 04:09:03;;;;;;;3.40;0.90;;;3.90;99.90;;;;;;5034301;28;20473;-71
2023/03/27 04:11:29;;;;;;;1.87;1.10;;;3.90;99.90;;;;;;5048562;28;20025;-72
2023/03/27 04:13:55;;;;;;;1.73;0.50;;;3.90;99.90;;;;;;5043511;28;20017;-72
2023/03/27 04:16:21;;;;;;;2.27;0.60;;;3.80;99.90;;;;;;5034605;28;20017;-72
2023/03/27 04:18:48;;;;;;;3.63;0.47;;;3.80;99.90;;;;;;5044386;28;20021;-72
2023/03/27 04:21:14;;;;;;;2.07;0.43;;;3.80;99.90;;;;;;5032893;28;20181;-71
2023/03/27 04:23:45;;;;;;;1.87;0.40;;;3.70;99.90;;;;;;5037361;28;20295;-71
2023/03/27 04:26:11;;;;;;;2.87;0.60;;;3.70;99.90;;;;;;5029618;28;20385;-71
2023/03/27 04:28:38;;;;;;;1.00;0.50;;;3.60;99.90;;;;;;5036665;28;20057;-71
2023/03/27 04:31:06;;;;;;;2.83;0.50;;;3.50;99.90;;;;;;5041121;28;20025;-71
2023/03/27 04:33:33;;;;;;;2.77;0.57;;;3.50;99.90;;;;;;5043111;28;20098;-71
2023/03/27 04:36:00;;;;;;;2.20;1.03;;;3.40;99.90;;;;;;5042992;28;21222;-72
2023/03/27 04:38:27;;;;;;;3.30;0.57;;;3.40;99.90;;;;;;5041000;28;20040;-72
2023/03/27 04:40:53;;;;;;;3.27;0.40;;;3.30;99.90;;;;;;5041623;28;20021;-74
2023/03/27 04:43:20;;;;;;;0.90;0.40;;;3.30;99.90;;;;;;5043371;28;20393;-71
2023/03/27 04:45:46;;;;;;;1.33;0.40;;;3.20;99.90;;;;;;5040963;28;20031;-71
2023/03/27 04:48:13;;;;;;;1.37;0.50;;;3.10;99.90;;;;;;5042175;28;20033;-71
2023/03/27 04:50:42;;;;;;;2.83;0.37;;;3.10;99.90;;;;;;5040400;28;20021;-72
2023/03/27 04:53:08;;;;;;;2.97;0.50;;;3.10;99.90;;;;;;5038427;28;20027;-72
2023/03/27 04:55:36;;;;;;;2.47;0.60;;;3.00;99.90;;;;;;5043786;28;20021;-72
2023/03/27 04:58:03;;;;;;;2.97;0.40;;;3.00;99.90;;;;;;5035802;28;20035;-71
2023/03/27 05:00:29;;;;;;;2.30;0.63;;;2.90;99.90;;;;;;5041042;28;20020;-71
2023/03/27 05:02:54;;;;;;;1.90;0.50;;;2.90;99.90;;;;;;5029078;28;20414;-72
2023/03/27 05:05:20;;;;;;;2.13;0.60;;;2.80;99.90;;;;;;5032119;28;20462;-72
2023/03/27 05:07:47;;;;;;;1.20;0.60;;;2.80;99.90;;;;;;5034732;28;20172;-72
2023/03/27 05:10:14;;;;;;;1.53;0.50;;;2.80;99.90;;;;;;5037895;28;20017;-72
2023/03/27 05:12:48;;;;;;;1.57;0.60;;;2.80;99.90;;;;;;5038082;28;20025;-72
2023/03/27 05:15:15;;;;;;;4.75;0.70;;;2.70;99.90;;;;;;5040815;28;20039;-72
2023/03/27 05:17:42;;;;;;;1.63;0.70;;;2.70;99.90;;;;;;5038033;28;20417;-73
2023/03/27 05:20:18;;;;;;;2.20;0.60;;;2.60;99.90;;;;;;5041806;28;20086;-72
2023/03/27 05:22:44;;;;;;;5.00;0.93;;;2.60;99.90;;;;;;5030010;28;20032;-72
2023/03/27 05:25:11;;;;;;;3.10;1.07;;;2.60;99.90;;;;;;5041850;28;20048;-72
2023/03/27 05:27:39;;;;;;;6.53;1.00;;;2.60;99.90;;;;;;5034704;28;20040;-72
2023/03/27 05:30:05;;;;;;;3.53;0.90;;;2.60;99.90;;;;;;5042099;28;20013;-73
2023/03/27 05:32:31;;;;;;;3.73;0.87;;;2.60;99.90;;;;;;5048886;28;20096;-73
2023/03/27 05:34:56;;;;;;;3.80;0.70;;;2.60;99.90;;;;;;5051269;28;20013;-73
2023/03/27 05:37:22;;;;;;;2.97;0.97;;;2.50;99.90;;;;;;5043716;28;20470;-73
2023/03/27 05:39:48;;;;;;;2.70;1.63;;;2.50;99.90;;;;;;5050052;28;20029;-73
2023/03/27 05:42:14;;;;;;;2.73;0.73;;;2.60;99.90;;;;;;5053841;28;20021;-73
2023/03/27 05:44:41;;;;;;;3.23;0.90;;;2.50;99.90;;;;;;5051651;28;20100;-73
2023/03/27 05:47:09;;;;;;;3.93;1.13;;;2.50;99.90;;;;;;5051594;28;20378;-73
2023/03/27 05:49:35;;;;;;;4.20;1.13;;;2.50;99.90;;;;;;5051069;28;20043;-73
2023/03/27 05:52:02;;;;;;;2.50;1.37;;;2.60;99.90;;;;;;5053095;28;20090;-73
2023/03/27 05:54:28;;;;;;;5.27;0.90;;;2.60;99.90;;;;;;5053290;28;20021;-72
2023/03/27 05:56:54;;;;;;;3.40;0.77;;;2.60;99.90;;;;;;5051185;28;20070;-74
2023/03/27 05:59:19;;;;;;;3.20;0.80;;;2.60;99.90;;;;;;5049756;28;20017;-73
2023/03/27 06:01:47;;;;;;;4.37;1.30;;;2.60;99.90;;;;;;5047339;28;20181;-71
2023/03/27 06:04:14;;;;;;;5.47;1.40;;;2.70;99.90;;;;;;5038136;28;20017;-72
2023/03/27 06:06:40;;;;;;;3.77;1.60;;;2.70;99.90;;;;;;5041619;28;20021;-71
2023/03/27 06:09:06;;;;;;;7.33;1.87;;;2.70;99.90;;;;;;5037558;28;20267;-71
2023/03/27 06:11:32;;;;;;;6.10;1.63;;;2.70;99.90;;;;;;5031280;28;20014;-71
2023/03/27 06:13:58;;;;;;;3.67;1.63;;;2.70;99.90;;;;;;5048746;28;20486;-71
2023/03/27 06:16:24;;;;;;;7.60;1.67;;;2.80;99.90;;;;;;5049740;28;20025;-71
2023/03/27 06:18:50;;;;;;;8.60;2.33;;;2.80;99.90;;;;;;5048923;28;20028;-71
2023/03/27 06:21:16;;;;;;;5.63;1.53;;;2.80;99.90;;;;;;5050106;28;20029;-71
2023/03/27 06:23:41;;;;;;;5.03;1.87;;;2.90;99.90;;;;;;5049072;28;20527;-72
2023/03/27 06:26:07;;;;;;;7.93;2.33;;;2.90;99.90;;;;;;5049251;28;20400;-72
2023/03/27 06:28:32;;;;;;;7.63;2.40;;;2.90;99.90;;;;;;5048393;28;20021;-72
2023/03/27 06:30:58;;;;;;;8.00;1.67;;;3.00;99.90;;;;;;5050524;28;20032;-71
2023/03/27 06:33:26;;;;;;;7.73;1.97;;;3.00;99.90;;;;;;5033912;28;20018;-71
2023/03/27 06:35:58;;;;;;;12.27;3.10;;;3.10;99.90;;;;;;5031304;28;20028;-71
2023/03/27 06:38:25;;;;;;;6.43;2.27;;;3.10;99.90;;;;;;5031770;28;20017;-71
2023/03/27 06:40:51;;;;;;;7.43;2.63;;;3.10;99.90;;;;;;5036984;28;20021;-71
2023/03/27 06:43:21;;;;;;;5.67;2.00;;;3.20;99.90;;;;;;5042512;28;20025;-71
2023/03/27 06:45:48;;;;;;;8.33;2.20;;;3.20;99.90;;;;;;5039670;28;20017;-71
2023/03/27 06:48:15;;;;;;;8.30;2.10;;;3.20;99.90;;;;;;5036231;28;20081;-71
2023/03/27 06:50:41;;;;;;;7.00;2.03;;;3.30;99.90;;;;;;5039326;28;20018;-71
2023/03/27 06:53:08;;;;;;;8.90;2.03;;;3.40;99.90;;;;;;5045459;28;20472;-71
2023/03/27 06:55:34;;;;;;;7.43;2.00;;;3.40;99.90;;;;;;5039920;28;20075;-71
2023/03/27 06:58:00;;;;;;;8.20;2.03;;;3.50;99.90;;;;;;5045751;28;20033;-72
2023/03/27 07:00:34;;;;;;;8.17;2.77;;;3.60;99.90;;;;;;5040884;28;20048;-71
2023/03/27 07:03:05;;;;;;;7.07;1.70;;;3.70;99.90;;;;;;5044791;28;20068;-71
2023/03/27 07:05:35;;;;;;;6.37;1.87;;;3.80;99.90;;;;;;5043514;28;20271;-71
2023/03/27 07:08:01;;;;;;;9.67;1.60;;;3.80;99.90;;;;;;5037337;28;20026;-72
2023/03/27 07:10:27;;;;;;;13.33;1.90;;;3.90;99.90;;;;;;5040991;28;20483;-71
2023/03/27 07:12:53;;;;;;;10.13;1.67;;;3.90;99.90;;;;;;5044626;28;20063;-71
2023/03/27 07:15:20;;;;;;;8.27;2.60;;;4.00;99.90;;;;;;5040737;28;20018;-71
2023/03/27 07:18:02;;;;;;;4.67;1.40;;;4.10;99.90;;;;;;5044978;28;20374;-71
2023/03/27 07:20:29;;;;;;;9.57;1.70;;;4.20;99.90;;;;;;5044204;28;20116;-71
2023/03/27 07:22:56;;;;;;;9.47;2.23;;;4.30;99.90;;;;;;5041424;28;20025;-71
2023/03/27 07:25:27;;;;;;;7.77;1.93;;;4.30;99.90;;;;;;5044601;28;20017;-71
2023/03/27 07:27:58;;;;;;;8.17;2.07;;;4.40;99.90;;;;;;5040927;28;20450;-71
2023/03/27 07:30:23;;;;;;;8.27;1.50;;;4.50;99.90;;;;;;5037279;28;20096;-72
2023/03/27 07:32:50;;;;;;;8.27;1.53;;;4.60;99.90;;;;;;5036788;28;20025;-72
2023/03/27 07:35:15;;;;;;;5.90;1.70;;;4.60;99.90;;;;;;5033030;28;20021;-71
2023/03/27 07:37:41;;;;;;;10.63;2.23;;;4.60;99.90;;;;;;5049041;28;20033;-71
2023/03/27 07:40:12;;;;;;;12.33;2.30;;;4.70;99.90;;;;;;5034258;28;20083;-71
2023/03/27 07:42:43;;;;;;;9.20;2.13;;;4.80;99.90;;;;;;5031927;28;20018;-70
2023/03/27 07:45:12;;;;;;;12.33;2.00;;;4.80;99.90;;;;;;5031608;28;20041;-71
2023/03/27 07:47:40;;;;;;;5.23;2.07;;;4.90;99.90;;;;;;5033815;28;20417;-72
2023/03/27 07:50:08;;;;;;;5.03;1.67;;;4.90;99.90;;;;;;5031996;28;20025;-71
2023/03/27 07:52:35;;;;;;;10.27;2.13;;;5.00;99.90;;;;;;5035296;28;20059;-71
2023/03/27 07:55:01;;;;;;;9.03;2.07;;;5.10;99.90;;;;;;5032440;28;20032;-72
2023/03/27 07:57:28;;;;;;;11.63;2.53;;;5.20;99.90;;;;;;5035688;28;20036;-71
2023/03/27 07:59:56;;;;;;;12.10;2.17;;;5.20;99.90;;;;;;5034390;28;20467;-72
2023/03/27 08:02:22;;;;;;;9.20;1.93;;;5.30;99.90;;;;;;5032954;28;20048;-71
2023/03/27 08:04:47;;;;;;;6.77;1.90;;;5.40;99.90;;;;;;5032997;28;20383;-71
2023/03/27 08:07:13;;;;;;;11.67;1.90;;;5.50;99.90;;;;;;5039160;28;20067;-71
2023/03/27 08:09:39;;;;;;;7.30;1.17;;;5.50;99.90;;;;;;5033393;28;20021;-71
2023/03/27 08:12:06;;;;;;;14.10;2.67;;;5.60;99.90;;;;;;5031230;28;20033;-71
2023/03/27 08:14:32;;;;;;;10.23;1.80;;;5.60;99.90;;;;;;5046019;28;20029;-72
2023/03/27 08:16:58;;;;;;;8.63;1.50;;;5.70;99.90;;;;;;5043978;28;20429;-71
2023/03/27 08:19:24;;;;;;;10.70;1.23;;;5.80;99.90;;;;;;5047540;28;20488;-71
2023/03/27 08:21:49;;;;;;;3.40;1.23;;;5.90;99.90;;;;;;5043182;28;20112;-72
2023/03/27 08:24:15;;;;;;;9.87;2.47;;;5.90;99.90;;;;;;5047154;28;20116;-72
2023/03/27 08:26:41;;;;;;;7.43;1.27;;;6.00;99.90;;;;;;5043756;28;20030;-71
2023/03/27 08:29:07;;;;;;;8.20;1.70;;;6.10;99.90;;;;;;5045549;28;20028;-72
2023/03/27 08:31:33;;;;;;;4.43;1.63;;;6.20;99.90;;;;;;5031779;28;20021;-71
2023/03/27 08:34:00;;;;;;;13.53;1.47;;;6.20;99.90;;;;;;5035478;28;20029;-72
2023/03/27 08:36:26;;;;;;;7.43;1.10;;;6.30;99.90;;;;;;5038236;28;20101;-72
2023/03/27 08:38:53;;;;;;;7.53;0.93;;;6.40;99.90;;;;;;5036631;28;20104;-72
2023/03/27 08:41:49;;;;;;;6.10;1.10;;;6.50;99.90;;;;;;5036724;28;20128;-72
2023/03/27 08:44:18;;;;;;;4.90;1.03;;;6.60;99.90;;;;;;5034982;28;20030;-73
2023/03/27 08:46:53;;;;;;;6.10;1.37;;;6.80;99.90;;;;;;5035978;28;20064;-72
2023/03/27 08:49:19;;;;;;;;;;;7.00;99.90;;;;;;5048694;28;20086;-72
2023/03/27 08:52:00;;;;;;;7.77;0.97;;;7.20;99.90;;;;;;5048386;28;19987;-71
2023/03/27 08:54:29;;;;;;;9.23;1.17;;;7.30;99.90;;;;;;5048164;28;20373;-72
2023/03/27 08:56:55;;;;;;;5.70;0.40;;;7.20;99.90;;;;;;5047161;28;20377;-73
2023/03/27 08:59:24;;;;;;;3.13;0.47;;;6.90;99.90;;;;;;5046792;28;20104;-73
2023/03/27 09:02:11;;;;;;;2.13;0.50;;;6.70;99.90;;;;;;5034588;28;20084;-73
2023/03/27 09:04:52;;;;;;;4.70;0.40;;;6.40;99.90;;;;;;5020773;28;20537;-72
2023/03/27 09:07:42;;;;;;;4.63;0.50;;;6.20;99.90;;;;;;5035710;28;20056;-73
2023/03/27 09:10:24;;;;;;;2.93;0.30;;;6.00;99.90;;;;;;5036394;28;20037;-73
2023/03/27 09:12:58;;;;;;;1.90;0.30;;;5.80;99.90;;;;;;5032025;28;20017;-73
2023/03/27 09:15:30;;;;;;;2.63;0.40;;;5.60;99.90;;;;;;5036138;28;20105;-72
2023/03/27 09:17:56;;;;;;;3.03;0.40;;;5.50;99.90;;;;;;5038915;28;20029;-72
2023/03/27 09:20:31;;;;;;;2.87;0.30;;;5.50;99.90;;;;;;5040233;28;20017;-73
2023/03/27 09:23:17;;;;;;;2.27;0.40;;;5.50;99.90;;;;;;5034966;28;20026;-73
2023/03/27 09:25:48;;;;;;;2.07;0.50;;;5.60;99.90;;;;;;5037695;28;20032;-74
2023/03/27 09:28:27;;;;;;;5.30;0.50;;;5.70;99.90;;;;;;5036211;28;20021;-74
2023/03/27 09:30:52;;;;;;;2.23;0.40;;;5.90;99.90;;;;;;5046529;28;20098;-73
2023/03/27 09:33:18;;;;;;;1.77;0.47;;;6.00;99.90;;;;;;5033928;28;20486;-72
2023/03/27 09:35:44;;;;;;;4.33;0.60;;;6.20;99.90;;;;;;5032609;28;20021;-72
2023/03/27 09:38:30;;;;;;;6.27;1.07;;;6.40;99.90;;;;;;5033616;28;20079;-73
2023/03/27 09:41:00;;;;;;;2.00;0.43;;;6.70;99.90;;;;;;5032703;28;20030;-73
2023/03/27 09:43:50;;;;;;;1.13;0.40;;;7.00;99.90;;;;;;5019775;28;20026;-73
2023/03/27 09:46:20;;;;;;;4.73;0.60;;;7.20;99.90;;;;;;5031693;28;20113;-73
2023/03/27 09:48:55;;;;;;;10.83;0.83;;;7.30;99.90;;;;;;5031854;28;20100;-73
2023/03/27 09:51:50;;;;;;;4.27;0.50;;;7.40;99.90;;;;;;5038138;28;20470;-74
2023/03/27 09:54:22;;;;;;;5.23;0.80;;;7.30;99.90;;;;;;5038760;28;20029;-73
2023/03/27 09:56:53;;;;;;;1.90;0.40;;;7.20;99.90;;;;;;5050388;28;20024;-73
2023/03/27 09:59:28;;;;;;;3.57;0.60;;;7.20;99.90;;;;;;5047315;28;20017;-73
2023/03/27 10:02:14;;;;;;;5.20;0.50;;;7.30;99.90;;;;;;5030397;28;20041;-73
2023/03/27 10:04:57;;;;;;;2.10;0.40;;;7.60;99.90;;;;;;5025019;28;20031;-73
2023/03/27 10:07:24;;;;;;;3.00;0.97;;;7.80;99.90;;;;;;5040008;28;20021;-73
2023/03/27 10:10:14;;;;;;;2.93;0.50;;;7.90;99.80;;;;;;5036905;28;20116;-73
2023/03/27 10:12:41;;;;;;;4.67;1.07;;;7.90;98.90;;;;;;5038313;28;20029;-73
2023/03/27 10:15:32;;;;;;;3.20;0.50;;;7.80;99.50;;;;;;5036263;28;20018;-73
2023/03/27 10:18:00;;;;;;;3.17;0.50;;;7.40;99.90;;;;;;5028500;28;20022;-73
2023/03/27 10:20:25;;;;;;;3.50;0.40;;;6.80;99.90;;;;;;5033511;28;20025;-72
2023/03/27 10:22:59;;;;;;;1.53;0.40;;;6.30;99.90;;;;;;5030598;28;20034;-72
2023/03/27 10:25:38;;;;;;;6.90;1.13;;;6.00;99.90;;;;;;5036248;28;20109;-73
2023/03/27 10:28:27;;;;;;;3.30;0.50;;;5.80;99.90;;;;;;5024641;28;20486;-73
2023/03/27 10:31:02;;;;;;;3.43;1.23;;;5.70;99.90;;;;;;5031646;28;20040;-72
2023/03/27 10:33:40;;;;;;;3.27;0.70;;;5.70;99.90;;;;;;5030722;28;20014;-72
2023/03/27 10:36:09;;;;;;;6.93;0.53;;;5.70;99.90;;;;;;5031451;28;20451;-73
2023/03/27 10:38:39;;;;;;;2.30;0.60;;;5.70;99.90;;;;;;5018847;28;20039;-73
2023/03/27 10:41:11;;;;;;;5.90;1.53;;;5.80;99.90;;;;;;5030750;28;20056;-73
2023/03/27 10:43:41;;;;;;;2.37;0.80;;;5.80;99.90;;;;;;5030741;28;20057;-73
2023/03/27 10:46:13;;;;;;;5.83;0.80;;;5.90;99.90;;;;;;5029231;28;20037;-73
2023/03/27 10:49:09;;;;;;;9.97;0.80;;;6.00;99.90;;;;;;5031206;28;20021;-73
2023/03/27 10:51:37;;;;;;;7.40;1.23;;;6.20;99.90;;;;;;5027453;28;20021;-73
2023/03/27 10:54:40;;;;;;;4.93;0.73;;;6.30;99.90;;;;;;5023105;28;20084;-73
2023/03/27 10:57:17;;;;;;;4.67;1.23;;;6.40;99.90;;;;;;5034942;28;20017;-72
2023/03/27 11:00:18;;;;;;;5.57;0.70;;;6.50;99.90;;;;;;5031925;28;20092;-73
2023/03/27 11:03:10;;;;;;;6.07;1.40;;;6.50;99.90;;;;;;5040750;28;20033;-72
2023/03/27 11:05:43;;;;;;;3.13;0.70;;;6.70;99.90;;;;;;5035857;28;20018;-73
2023/03/27 11:08:26;;;;;;;4.37;0.70;;;6.80;99.90;;;;;;5033553;28;20044;-73
2023/03/27 11:10:56;;;;;;;7.30;1.53;;;6.90;99.90;;;;;;5039805;28;20033;-73
2023/03/27 11:13:32;;;;;;;3.93;0.50;;;7.00;99.90;;;;;;5038702;28;20053;-73
2023/03/27 11:16:28;;;;;;;4.47;0.90;;;7.20;99.90;;;;;;5040975;28;20035;-73
2023/03/27 11:19:16;;;;;;;5.93;0.70;;;7.40;99.90;;;;;;5035688;28;20071;-72
2023/03/27 11:22:05;;;;;;;5.13;0.93;;;7.60;99.90;;;;;;5031841;28;20482;-72
2023/03/27 11:24:39;;;;;;;2.37;0.57;;;7.80;99.90;;;;;;5026042;28;20556;-71
2023/03/27 11:27:27;;;;;;;2.35;0.77;;;7.90;99.90;;;;;;5036510;28;20020;-71
2023/03/27 11:30:04;;;;;;;3.00;0.80;;;7.90;99.90;;;;;;5029975;28;20041;-72
2023/03/27 11:32:57;;;;;;;8.87;0.60;;;8.00;99.90;;;;;;5032279;28;20029;-72
2023/03/27 11:35:27;;;;;;;3.47;0.93;;;8.10;99.90;;;;;;5028969;28;20045;-72
2023/03/27 11:37:59;;;;;;;3.43;0.73;;;8.10;99.90;;;;;;5029978;28;20026;-72
2023/03/27 11:40:33;;;;;;;11.07;1.47;;;8.10;99.90;;;;;;5044213;28;20036;-72
2023/03/27 11:43:00;;;;;;;3.37;0.60;;;8.20;99.90;;;;;;5039289;28;20025;-72
2023/03/27 11:45:31;;;;;;;4.23;0.67;;;8.20;99.90;;;;;;5039923;28;20029;-74
2023/03/27 11:48:23;;;;;;;4.90;1.17;;;8.50;99.90;;;;;;5046311;28;20072;-72
2023/03/27 11:51:00;;;;;;;3.07;0.50;;;8.70;99.90;;;;;;5035787;28;20052;-72
2023/03/27 11:53:42;;;;;;;4.70;1.07;;;9.00;99.90;;;;;;5044696;28;20497;-71
2023/03/27 11:56:29;;;;;;;6.53;0.97;;;8.90;99.90;;;;;;5030669;28;20029;-72
2023/03/27 11:59:04;;;;;;;9.27;1.03;;;8.80;99.90;;;;;;5035084;28;20383;-73
2023/03/27 12:01:37;;;;;;;5.27;0.70;;;8.70;99.90;;;;;;5044259;28;20041;-73
2023/03/27 12:04:11;;;;;;;11.20;1.00;;;8.60;99.90;;;;;;5039688;28;20025;-73
2023/03/27 12:07:01;;;;;;;2.77;0.50;;;8.60;99.90;;;;;;5034689;28;20017;-73
2023/03/27 12:10:05;;;;;;;7.57;0.90;;;8.50;98.60;;;;;;5023759;28;20057;-73
2023/03/27 12:13:19;;;;;;;3.08;0.90;;;8.60;98.80;;;;;;4949348;28;20035;-73
2023/03/27 12:16:19;;;;;;;6.43;0.90;;;8.60;98.30;;;;;;4939596;28;20050;-73
2023/03/27 12:19:06;;;;;;;4.20;1.07;;;8.40;96.90;;;;;;4953313;28;20026;-73
2023/03/27 12:21:46;;;;;;;3.07;0.73;;;8.20;96.60;;;;;;4951723;28;20039;-72
2023/03/27 12:24:37;;;;;;;1.87;0.40;;;8.00;97.10;;;;;;4943823;28;20043;-72
2023/03/27 12:27:46;;;;;;;0.67;0.40;;;7.90;97.90;;;;;;4953417;28;20074;-72
2023/03/27 12:30:26;;;;;;;3.17;0.50;;;7.80;97.70;;;;;;4950763;28;20075;-72
2023/03/27 12:32:58;;;;;;;1.53;0.33;;;7.80;97.00;;;;;;4962004;28;20102;-72
2023/03/27 12:35:29;;;;;;;1.90;0.40;;;7.60;95.90;;;;;;4962385;28;20031;-72
2023/03/27 12:38:02;;;;;;;2.97;0.50;;;7.40;97.00;;;;;;4966888;28;20039;-73
2023/03/27 12:40:29;;;;;;;2.40;0.60;;;7.30;97.50;;;;;;4964849;28;20045;-73
2023/03/27 12:43:30;;;;;;;7.73;0.90;;;7.30;97.70;;;;;;4990618;28;20525;-72
2023/03/27 12:46:13;;;;;;;3.80;0.53;;;7.30;97.90;;;;;;5037440;28;20482;-72
2023/03/27 12:49:04;;;;;;;3.43;0.60;;;7.30;98.30;;;;;;5043512;28;20446;-72
2023/03/27 12:52:03;;;;;;;4.23;0.57;;;7.40;98.30;;;;;;5047621;28;20033;-72
2023/03/27 12:54:31;;;;;;;5.97;0.80;;;7.50;98.00;;;;;;5042386;28;20025;-72
2023/03/27 12:56:58;;;;;;;2.93;0.60;;;7.60;97.90;;;;;;5040073;28;20417;-72
2023/03/27 12:59:27;;;;;;;4.13;0.70;;;7.70;97.60;;;;;;5045355;28;20513;-72
2023/03/27 13:02:34;;;;;;;4.03;0.87;;;7.90;96.50;;;;;;5037634;28;20065;-73
2023/03/27 13:05:12;;;;;;;4.70;0.70;;;8.10;95.90;;;;;;5036732;28;20060;-73
2023/03/27 13:08:10;;;;;;;3.53;0.90;;;8.40;95.20;;;;;;5049357;28;20033;-72
2023/03/27 13:10:50;;;;;;;4.07;0.80;;;8.40;94.90;;;;;;4985479;28;20034;-72
2023/03/27 13:13:35;;;;;;;3.33;0.60;;;8.40;97.70;;;;;;4978166;28;20038;-72
2023/03/27 13:16:12;;;;;;;6.43;0.87;;;8.00;99.90;;;;;;4971805;28;20043;-72
2023/03/27 13:18:56;;;;;;;5.73;0.93;;;7.80;99.90;;;;;;4979396;28;20030;-72
2023/03/27 13:21:46;;;;;;;7.38;0.77;;;7.60;99.90;;;;;;4976528;28;20121;-72
2023/03/27 13:24:25;;;;;;;4.33;0.60;;;7.50;99.90;;;;;;4960261;28;20027;-72